createdAt,value
2018-04-06T00:02:05.072Z,6.70
2018-04-06T00:04:33.988Z,8.13
2018-04-06T00:07:02.951Z,7.73
2018-04-06T00:09:32.519Z,7.03
2018-04-06T00:12:03.090Z,7.53
2018-04-06T00:14:31.984Z,7.40
2018-04-06T00:17:01.268Z,7.90
2018-04-06T00:19:30.170Z,9.10
2018-04-06T00:21:59.113Z,9.40
2018-04-06T00:24:28.493Z,8.13
2018-04-06T00:26:57.390Z,8.53
2018-04-06T00:29:26.259Z,8.33
2018-04-06T00:31:55.719Z,8.43
2018-04-06T00:34:25.610Z,9.13
2018-04-06T00:36:54.839Z,10.00
2018-04-06T00:39:25.476Z,9.60
2018-04-06T00:41:55.080Z,9.33
2018-04-06T00:44:23.931Z,9.17
2018-04-06T00:46:52.776Z,9.27
2018-04-06T00:49:21.670Z,9.40
2018-04-06T00:51:50.897Z,10.20
2018-04-06T00:54:19.880Z,9.53
2018-04-06T00:56:48.831Z,9.27
2018-04-06T00:59:18.231Z,8.47
2018-04-06T01:01:47.209Z,6.87
2018-04-06T01:04:16.096Z,6.33
2018-04-06T01:06:45.441Z,6.50
2018-04-06T01:09:14.434Z,6.53
2018-04-06T01:11:43.392Z,6.10
2018-04-06T01:14:12.741Z,6.57
2018-04-06T01:16:41.644Z,5.90
2018-04-06T01:19:10.840Z,6.17
2018-04-06T01:21:40.019Z,5.97
2018-04-06T01:24:08.868Z,6.50
2018-04-06T01:26:37.790Z,6.57
2018-04-06T01:29:06.656Z,6.80
2018-04-06T01:31:35.588Z,6.60
2018-04-06T01:34:05.363Z,7.03
2018-04-06T01:36:34.428Z,5.53
2018-04-06T01:39:03.375Z,5.70
2018-04-06T01:41:32.637Z,6.67
2018-04-06T01:44:01.544Z,6.40
2018-04-06T01:46:30.382Z,5.93
2018-04-06T01:48:59.603Z,5.90
2018-04-06T01:51:28.351Z,6.90
2018-04-06T01:53:57.047Z,5.83
2018-04-06T01:56:26.190Z,6.40
2018-04-06T01:58:54.876Z,5.17
2018-04-06T02:01:23.575Z,5.10
2018-04-06T02:03:52.924Z,4.83
2018-04-06T02:06:21.790Z,4.50
2018-04-06T02:08:50.635Z,4.00
2018-04-06T02:11:20.020Z,4.07
2018-04-06T02:13:48.875Z,4.50
2018-04-06T02:16:17.731Z,4.37
2018-04-06T02:18:46.973Z,4.40
2018-04-06T02:21:15.812Z,4.47
2018-04-06T02:23:44.575Z,4.33
2018-04-06T02:26:13.955Z,4.00
2018-04-06T02:28:42.650Z,4.73
2018-04-06T02:31:11.355Z,4.67
2018-04-06T02:33:40.839Z,4.50
2018-04-06T02:36:09.583Z,4.13
2018-04-06T02:38:38.335Z,4.13
2018-04-06T02:41:07.482Z,4.40
2018-04-06T02:43:36.315Z,4.93
2018-04-06T02:46:05.579Z,4.10
2018-04-06T02:48:34.831Z,5.00
2018-04-06T02:51:03.565Z,4.97
2018-04-06T02:53:32.281Z,5.30
2018-04-06T02:56:01.360Z,4.80
2018-04-06T02:58:30.133Z,4.83
2018-04-06T03:00:58.840Z,5.00
2018-04-06T03:03:28.039Z,4.60
2018-04-06T03:05:56.755Z,4.60
2018-04-06T03:08:25.446Z,5.00
2018-04-06T03:10:54.588Z,5.03
2018-04-06T03:13:23.276Z,4.90
2018-04-06T03:15:52.018Z,5.20
2018-04-06T03:18:21.038Z,4.57
2018-04-06T03:20:49.702Z,5.47
2018-04-06T03:23:18.562Z,5.23
2018-04-06T03:25:47.705Z,5.17
2018-04-06T03:28:16.409Z,5.30
2018-04-06T03:30:45.090Z,5.80
2018-04-06T03:33:14.228Z,5.27
2018-04-06T03:35:42.935Z,5.27
2018-04-06T03:38:11.631Z,5.27
2018-04-06T03:40:40.936Z,6.50
2018-04-06T03:43:09.663Z,5.30
2018-04-06T03:45:38.376Z,5.93
2018-04-06T03:48:07.525Z,5.40
2018-04-06T03:50:36.364Z,5.23
2018-04-06T03:53:05.105Z,5.40
2018-04-06T03:55:35.466Z,4.93
2018-04-06T03:58:04.815Z,5.77
2018-04-06T04:00:33.551Z,5.57
2018-04-06T04:03:02.757Z,6.27
2018-04-06T04:05:31.466Z,5.77
2018-04-06T04:08:00.228Z,5.80
2018-04-06T04:10:29.302Z,5.20
2018-04-06T04:12:58.048Z,5.53
2018-04-06T04:15:26.778Z,5.67
2018-04-06T04:17:55.936Z,5.73
2018-04-06T04:20:24.663Z,5.53
2018-04-06T04:22:53.380Z,5.40
2018-04-06T04:25:22.454Z,6.13
2018-04-06T04:27:51.165Z,6.23
2018-04-06T04:30:19.886Z,5.93
2018-04-06T04:32:47.814Z,6.07
2018-04-06T04:35:16.523Z,5.47
2018-04-06T04:37:45.232Z,6.60
2018-04-06T04:40:15.441Z,5.60
2018-04-06T04:42:44.155Z,6.67
2018-04-06T04:45:43.327Z,6.90
2018-04-06T04:48:12.448Z,7.60
2018-04-06T04:50:41.220Z,6.00
2018-04-06T04:53:09.915Z,6.00
2018-04-06T04:55:39.079Z,5.97
2018-04-06T04:58:07.843Z,6.37
2018-04-06T05:00:36.626Z,5.80
2018-04-06T05:03:05.663Z,6.53
2018-04-06T05:05:34.413Z,6.90
2018-04-06T05:08:03.651Z,6.53
2018-04-06T05:10:32.896Z,6.97
2018-04-06T05:13:01.914Z,7.40
2018-04-06T05:17:54.534Z,6.63
2018-04-06T05:20:23.258Z,7.50
2018-04-06T05:22:52.011Z,7.07
2018-04-06T05:25:21.047Z,7.47
2018-04-06T05:27:49.990Z,7.30
2018-04-06T05:30:18.835Z,6.97
2018-04-06T05:32:47.643Z,6.40
2018-04-06T05:35:16.422Z,7.17
2018-04-06T05:37:45.400Z,6.13
2018-04-06T05:40:14.595Z,7.27
2018-04-06T05:42:43.311Z,6.30
2018-04-06T05:45:12.051Z,6.67
2018-04-06T05:47:41.369Z,6.43
2018-04-06T05:50:10.097Z,7.60
2018-04-06T05:52:38.915Z,6.53
2018-04-06T05:55:07.911Z,6.60
2018-04-06T05:57:36.645Z,7.13
2018-04-06T06:00:06.418Z,6.93
2018-04-06T06:02:35.454Z,8.03
2018-04-06T06:05:04.364Z,7.20
2018-04-06T06:07:33.419Z,7.30
2018-04-06T06:10:03.640Z,7.17
2018-04-06T06:12:32.366Z,7.67
2018-04-06T06:15:01.720Z,8.00
2018-04-06T06:17:30.965Z,7.60
2018-04-06T06:19:59.710Z,7.90
2018-04-06T06:22:28.498Z,7.40
2018-04-06T06:25:00.506Z,7.80
2018-04-06T06:27:29.321Z,8.00
2018-04-06T06:29:58.006Z,7.87
2018-04-06T06:32:27.140Z,6.97
2018-04-06T06:34:55.816Z,7.63
2018-04-06T06:37:24.566Z,7.53
2018-04-06T06:39:53.466Z,9.40
2018-04-06T06:42:22.215Z,7.40
2018-04-06T06:44:51.081Z,6.87
2018-04-06T06:47:20.171Z,7.80
2018-04-06T06:49:48.933Z,7.13
2018-04-06T06:52:17.740Z,6.57
2018-04-06T06:54:46.507Z,6.17
2018-04-06T06:57:15.224Z,6.00
2018-04-06T06:59:45.321Z,6.03
2018-04-06T07:02:14.293Z,7.40
2018-04-06T07:04:43.691Z,7.70
2018-04-06T07:07:13.044Z,6.43
2018-04-06T07:09:42.118Z,6.80
2018-04-06T07:12:10.859Z,5.63
2018-04-06T07:14:40.366Z,4.90
2018-04-06T07:17:09.310Z,5.13
2018-04-06T07:19:38.126Z,5.10
2018-04-06T07:22:07.043Z,4.90
2018-04-06T07:24:35.925Z,4.43
2018-04-06T07:27:04.745Z,4.97
2018-04-06T07:29:33.840Z,3.30
2018-04-06T07:32:03.201Z,4.00
2018-04-06T07:34:31.946Z,3.90
2018-04-06T07:37:01.290Z,3.67
2018-04-06T07:39:30.159Z,2.63
2018-04-06T07:41:59.599Z,2.67
2018-04-06T07:44:28.358Z,2.30
2018-04-06T07:46:57.120Z,2.90
2018-04-06T07:49:26.331Z,2.93
2018-04-06T07:51:55.034Z,3.40
2018-04-06T07:54:23.726Z,3.13
2018-04-06T07:56:54.227Z,3.03
2018-04-06T07:59:22.990Z,3.57
2018-04-06T08:01:53.472Z,3.03
2018-04-06T08:04:22.220Z,2.60
2018-04-06T08:06:51.231Z,2.73
2018-04-06T08:09:19.978Z,2.67
2018-04-06T08:11:48.755Z,2.73
2018-04-06T08:14:17.781Z,2.93
2018-04-06T08:16:46.582Z,2.93
2018-04-06T08:19:15.311Z,3.03
2018-04-06T08:21:45.007Z,3.23
2018-04-06T08:24:14.160Z,2.97
2018-04-06T08:26:42.927Z,2.97
2018-04-06T08:29:11.638Z,3.00
2018-04-06T08:31:41.356Z,3.27
2018-04-06T08:34:10.270Z,3.50
2018-04-06T08:36:39.161Z,3.77
2018-04-06T08:39:08.467Z,3.40
2018-04-06T08:41:37.478Z,3.17
2018-04-06T08:44:06.593Z,3.10
2018-04-06T08:46:35.562Z,2.90
2018-04-06T08:49:04.514Z,3.37
2018-04-06T08:51:33.387Z,3.20
2018-04-06T08:54:03.265Z,3.10
2018-04-06T08:56:32.127Z,3.50
2018-04-06T08:59:01.171Z,3.10
2018-04-06T09:01:30.106Z,3.20
2018-04-06T09:03:59.073Z,3.07
2018-04-06T09:06:28.302Z,3.40
2018-04-06T09:08:57.302Z,3.87
2018-04-06T09:11:26.213Z,3.40
2018-04-06T09:13:55.599Z,4.30
2018-04-06T09:16:24.646Z,3.43
2018-04-06T09:18:54.385Z,3.60
2018-04-06T09:21:23.596Z,3.17
2018-04-06T09:23:52.693Z,2.80
2018-04-06T09:26:21.661Z,3.43
2018-04-06T09:28:50.673Z,3.13
2018-04-06T09:31:19.624Z,3.47
2018-04-06T09:33:48.974Z,3.07
2018-04-06T09:36:18.370Z,3.50
2018-04-06T09:38:48.349Z,3.10
2018-04-06T09:41:18.443Z,2.77
2018-04-06T09:43:48.717Z,2.30
2018-04-06T09:46:18.453Z,2.70
2018-04-06T09:48:49.379Z,3.20
2018-04-06T09:51:18.997Z,3.80
2018-04-06T09:53:48.758Z,3.33
2018-04-06T09:56:18.858Z,3.40
2018-04-06T09:58:48.190Z,4.13
2018-04-06T10:01:17.232Z,2.70
2018-04-06T10:03:46.429Z,2.93
2018-04-06T10:06:15.796Z,3.80
2018-04-06T10:08:45.956Z,3.37
2018-04-06T10:11:15.726Z,3.10
2018-04-06T10:13:45.185Z,3.80
2018-04-06T10:16:15.197Z,3.10
2018-04-06T10:18:45.098Z,3.80
2018-04-06T10:21:14.685Z,4.97
2018-04-06T10:23:44.141Z,5.20
2018-04-06T10:26:14.136Z,4.80
2018-04-06T10:28:43.943Z,3.90
2018-04-06T10:31:13.738Z,3.10
2018-04-06T10:33:43.239Z,5.30
2018-04-06T10:36:12.705Z,6.30
2018-04-06T10:38:42.253Z,5.53
2018-04-06T10:41:11.654Z,4.03
2018-04-06T10:43:40.654Z,5.40
2018-04-06T10:46:10.736Z,5.20
2018-04-06T10:48:40.386Z,3.90
2018-04-06T10:51:10.171Z,4.10
2018-04-06T10:53:40.269Z,4.70
2018-04-06T10:56:10.007Z,5.30
2018-04-06T10:58:39.994Z,3.50
2018-04-06T11:01:09.723Z,3.67
2018-04-06T11:03:39.606Z,3.33
2018-04-06T11:06:09.049Z,3.60
2018-04-06T11:08:39.010Z,3.83
2018-04-06T11:11:08.640Z,3.60
2018-04-06T11:13:38.698Z,3.40
2018-04-06T11:16:07.776Z,5.83
2018-04-06T11:18:37.197Z,4.70
2018-04-06T11:21:07.259Z,4.93
2018-04-06T11:23:37.214Z,4.23
2018-04-06T11:26:06.966Z,4.10
2018-04-06T11:28:37.231Z,4.07
2018-04-06T11:31:07.005Z,2.80
2018-04-06T11:33:37.346Z,3.17
2018-04-06T11:36:07.075Z,3.10
2018-04-06T11:38:36.820Z,2.63
2018-04-06T11:41:06.550Z,3.97
2018-04-06T11:43:35.950Z,3.30
2018-04-06T11:46:05.992Z,3.10
2018-04-06T11:48:35.745Z,2.60
2018-04-06T11:51:05.298Z,3.60
2018-04-06T11:53:35.119Z,3.93
2018-04-06T11:56:06.431Z,3.93
2018-04-06T11:58:35.950Z,4.50
2018-04-06T12:01:05.001Z,6.37
2018-04-06T12:03:34.207Z,6.00
2018-04-06T12:06:04.524Z,5.23
2018-04-06T12:08:33.392Z,4.10
2018-04-06T12:11:02.692Z,3.20
2018-04-06T12:13:31.586Z,3.00
2018-04-06T12:16:00.484Z,5.50
2018-04-06T12:18:29.385Z,3.57
2018-04-06T12:20:58.359Z,3.40
2018-04-06T12:23:27.574Z,3.30
2018-04-06T12:25:56.569Z,4.27
2018-04-06T12:28:25.565Z,3.20
2018-04-06T12:30:54.925Z,4.07
2018-04-06T12:33:23.831Z,4.47
2018-04-06T12:35:52.920Z,3.50
2018-04-06T12:38:22.117Z,3.30
2018-04-06T12:40:51.036Z,3.73
2018-04-06T12:43:19.933Z,5.93
2018-04-06T12:45:49.137Z,4.80
2018-04-06T12:48:18.032Z,4.67
2018-04-06T12:50:46.965Z,3.80
2018-04-06T12:53:16.238Z,4.10
2018-04-06T12:55:45.142Z,4.20
2018-04-06T12:58:14.099Z,3.90
2018-04-06T13:00:43.079Z,7.40
2018-04-06T13:03:12.103Z,6.43
2018-04-06T13:05:41.502Z,4.87
2018-04-06T13:08:10.474Z,3.73
2018-04-06T13:10:39.397Z,5.50
2018-04-06T13:13:08.651Z,4.47
2018-04-06T13:15:37.789Z,4.40
2018-04-06T13:18:06.962Z,3.90
2018-04-06T13:20:36.519Z,4.40
2018-04-06T13:23:06.225Z,4.87
2018-04-06T13:25:36.079Z,5.40
2018-04-06T13:28:06.973Z,4.30
2018-04-06T13:30:36.795Z,5.47
2018-04-06T13:33:06.650Z,5.73
2018-04-06T13:35:36.204Z,4.30
2018-04-06T13:38:06.426Z,4.30
2018-04-06T13:40:36.087Z,4.43
2018-04-06T13:43:05.571Z,7.50
2018-04-06T13:45:35.548Z,7.33
2018-04-06T13:48:06.727Z,12.47
2018-04-06T13:50:36.351Z,5.80
2018-04-06T13:53:06.077Z,4.13
2018-04-06T13:55:36.087Z,6.93
2018-04-06T13:58:07.033Z,5.00
2018-04-06T14:00:36.966Z,5.73
2018-04-06T14:03:06.705Z,5.43
2018-04-06T14:05:36.247Z,8.30
2018-04-06T14:08:06.547Z,6.97
2018-04-06T14:10:36.348Z,7.37
2018-04-06T14:13:06.221Z,5.70
2018-04-06T14:15:36.006Z,9.50
2018-04-06T14:18:06.395Z,6.90
2018-04-06T14:20:36.267Z,5.60
2018-04-06T14:23:06.408Z,6.40
2018-04-06T14:25:36.488Z,4.73
2018-04-06T14:28:07.118Z,12.20
2018-04-06T14:30:37.435Z,8.90
2018-04-06T14:33:07.176Z,7.30
2018-04-06T14:35:36.967Z,4.80
2018-04-06T14:38:07.393Z,5.00
2018-04-06T14:40:36.959Z,7.40
2018-04-06T14:43:06.902Z,6.10
2018-04-06T14:45:36.643Z,6.30
2018-04-06T14:48:06.986Z,5.10
2018-04-06T14:50:36.448Z,12.20
2018-04-06T14:53:06.305Z,11.10
2018-04-06T14:55:36.196Z,6.50
2018-04-06T14:58:07.843Z,6.67
2018-04-06T15:00:37.490Z,10.00
2018-04-06T15:03:07.282Z,7.70
2018-04-06T15:05:37.474Z,11.13
2018-04-06T15:08:07.315Z,7.70
2018-04-06T15:10:37.190Z,6.83
2018-04-06T15:13:07.244Z,11.60
2018-04-06T15:15:36.606Z,6.80
2018-04-06T15:18:06.369Z,7.73
2018-04-06T15:20:36.532Z,7.40
2018-04-06T15:23:05.934Z,5.10
2018-04-06T15:25:35.773Z,4.90
2018-04-06T15:28:07.098Z,9.47
2018-04-06T15:30:36.686Z,8.33
2018-04-06T15:33:06.852Z,5.80
2018-04-06T15:35:36.574Z,4.67
2018-04-06T15:38:07.884Z,8.30
2018-04-06T15:40:38.070Z,5.77
2018-04-06T15:43:08.803Z,5.00
2018-04-06T15:45:39.034Z,8.10
2018-04-06T15:48:08.922Z,6.80
2018-04-06T15:50:38.712Z,7.23
2018-04-06T15:53:08.158Z,4.83
2018-04-06T15:55:38.541Z,7.27
2018-04-06T15:58:08.176Z,10.80
2018-04-06T16:00:38.109Z,11.17
2018-04-06T16:03:07.905Z,9.73
2018-04-06T16:05:37.697Z,8.20
2018-04-06T16:08:07.584Z,7.20
2018-04-06T16:10:37.046Z,9.63
2018-04-06T16:13:06.904Z,5.50
2018-04-06T16:15:37.299Z,12.80
2018-04-06T16:18:07.195Z,9.17
2018-04-06T16:20:37.289Z,9.83
2018-04-06T16:23:07.218Z,7.70
2018-04-06T16:25:36.581Z,11.60
2018-04-06T16:28:06.764Z,5.53
2018-04-06T16:30:36.726Z,7.40
2018-04-06T16:33:06.087Z,6.00
2018-04-06T16:35:35.698Z,9.57
2018-04-06T16:41:38.192Z,5.17
2018-04-06T16:44:08.753Z,13.27
2018-04-06T16:46:39.298Z,7.07
2018-04-06T16:49:09.037Z,10.97
2018-04-06T16:51:39.348Z,7.97
2018-04-06T16:54:08.415Z,11.70
2018-04-06T16:56:37.949Z,8.83
2018-04-06T16:59:07.848Z,9.50
2018-04-06T17:01:38.644Z,9.97
2018-04-06T17:04:08.342Z,5.73
2018-04-06T17:06:38.566Z,7.97
2018-04-06T17:09:08.232Z,10.63
2018-04-06T17:11:38.049Z,14.17
2018-04-06T17:14:07.642Z,16.80
2018-04-06T17:16:37.577Z,16.13
2018-04-06T17:19:07.638Z,16.30
2018-04-06T17:21:38.132Z,13.80
2018-04-06T17:24:08.023Z,7.77
2018-04-06T17:26:38.451Z,6.80
2018-04-06T17:29:08.371Z,8.63
2018-04-06T17:31:38.147Z,11.17
2018-04-06T17:34:08.140Z,11.23
2018-04-06T17:36:37.762Z,15.00
2018-04-06T17:39:08.135Z,15.50
2018-04-06T17:41:38.786Z,25.07
2018-04-06T17:44:08.220Z,19.30
2018-04-06T17:46:38.532Z,18.10
2018-04-06T17:49:08.676Z,17.40
2018-04-06T17:51:38.295Z,12.23
2018-04-06T17:54:07.841Z,18.00
2018-04-06T17:56:37.236Z,17.50
2018-04-06T17:59:06.206Z,20.07
2018-04-06T18:01:36.533Z,23.10
2018-04-06T18:04:07.182Z,21.73
2018-04-06T18:06:37.124Z,14.43
2018-04-06T18:09:07.404Z,14.60
2018-04-06T18:11:37.314Z,15.77
2018-04-06T18:14:06.914Z,18.37
2018-04-06T18:16:37.276Z,30.83
2018-04-06T18:19:06.835Z,26.63
2018-04-06T18:21:36.650Z,18.90
2018-04-06T18:24:08.069Z,12.33
2018-04-06T18:26:37.925Z,16.17
2018-04-06T18:29:07.840Z,18.17
2018-04-06T18:31:37.744Z,22.23
2018-04-06T18:34:07.384Z,26.00
2018-04-06T18:36:36.977Z,18.10
2018-04-06T18:39:07.591Z,12.70
2018-04-06T18:41:37.964Z,11.93
2018-04-06T18:44:08.465Z,12.50
2018-04-06T18:48:07.041Z,11.00
2018-04-06T18:50:37.172Z,13.60
2018-04-06T18:53:06.614Z,16.57
2018-04-06T18:55:36.383Z,15.70
2018-04-06T18:58:07.213Z,19.53
2018-04-06T19:00:37.242Z,20.30
2018-04-06T19:03:06.226Z,23.93
2018-04-06T19:05:35.526Z,23.33
2018-04-06T19:08:06.891Z,19.57
2018-04-06T19:10:36.464Z,14.67
2018-04-06T19:13:07.794Z,16.70
2018-04-06T19:15:37.534Z,13.97
2018-04-06T19:18:07.224Z,13.23
2018-04-06T19:20:36.515Z,17.30
2018-04-06T19:23:05.765Z,25.20
2018-04-06T19:25:35.953Z,23.03
2018-04-06T19:28:06.391Z,20.40
2018-04-06T19:30:36.050Z,17.83
2018-04-06T19:33:06.603Z,88.10
2018-04-06T19:35:36.537Z,27.57
2018-04-06T19:38:06.955Z,10.50
2018-04-06T19:40:37.347Z,11.03
2018-04-06T19:43:06.814Z,10.80
2018-04-06T19:45:35.719Z,11.20
2018-04-06T19:48:05.670Z,13.60
2018-04-06T19:50:34.824Z,13.93
2018-04-06T19:53:04.568Z,12.90
2018-04-06T19:55:34.700Z,14.20
2018-04-06T19:58:04.968Z,10.00
2018-04-06T20:00:34.366Z,7.97
2018-04-06T20:03:05.304Z,8.40
2018-04-06T20:05:35.418Z,8.07
2018-04-06T20:08:07.768Z,7.37
2018-04-06T20:10:37.901Z,8.90
2018-04-06T20:13:07.546Z,10.30
2018-04-06T20:15:38.171Z,7.90
2018-04-06T20:18:07.314Z,9.53
2018-04-06T20:20:37.211Z,9.13
2018-04-06T20:23:07.141Z,10.20
2018-04-06T20:25:36.871Z,12.77
2018-04-06T20:28:07.401Z,13.30
2018-04-06T20:30:36.926Z,11.43
2018-04-06T20:33:06.673Z,11.83
2018-04-06T20:35:37.219Z,10.20
2018-04-06T20:38:07.753Z,10.57
2018-04-06T20:40:37.760Z,11.20
2018-04-06T20:43:06.997Z,12.20
2018-04-06T20:45:36.808Z,12.10
2018-04-06T20:48:07.006Z,13.90
2018-04-06T20:50:36.642Z,14.63
2018-04-06T20:53:06.392Z,11.83
2018-04-06T20:55:36.937Z,15.10
2018-04-06T20:58:06.930Z,12.47
2018-04-06T21:00:36.689Z,13.10
2018-04-06T21:03:06.381Z,12.33
2018-04-06T21:05:35.571Z,10.57
2018-04-06T21:08:05.467Z,10.33
2018-04-06T21:10:35.714Z,11.97
2018-04-06T21:13:05.943Z,9.40
2018-04-06T21:15:35.585Z,11.93
2018-04-06T21:18:05.942Z,10.87
2018-04-06T21:20:35.654Z,8.50
2018-04-06T21:23:05.211Z,7.43
2018-04-06T21:25:35.175Z,8.27
2018-04-06T21:28:06.030Z,8.47
2018-04-06T21:30:35.614Z,9.40
2018-04-06T21:33:05.778Z,7.97
2018-04-06T21:35:35.661Z,6.70
2018-04-06T21:38:07.324Z,7.93
2018-04-06T21:40:38.080Z,10.47
2018-04-06T21:43:07.184Z,9.23
2018-04-06T21:45:36.788Z,9.60
2018-04-06T21:48:07.650Z,11.13
2018-04-06T21:50:37.648Z,8.63
2018-04-06T21:53:07.512Z,7.63
2018-04-06T21:55:37.880Z,8.03
2018-04-06T21:58:07.694Z,8.83
2018-04-06T22:00:37.528Z,7.00
2018-04-06T22:03:07.099Z,8.13
2018-04-06T22:05:36.981Z,7.50
2018-04-06T22:08:08.961Z,7.07
2018-04-06T22:10:38.614Z,7.50
2018-04-06T22:13:08.125Z,7.40
2018-04-06T22:15:38.447Z,6.57
2018-04-06T22:18:07.977Z,8.30
2018-04-06T22:20:37.757Z,8.70
2018-04-06T22:23:07.101Z,9.23
2018-04-06T22:25:36.819Z,8.20
2018-04-06T22:28:06.895Z,7.10
2018-04-06T22:30:37.896Z,6.37
2018-04-06T22:33:07.266Z,9.10
2018-04-06T22:35:36.879Z,10.37
2018-04-06T22:38:06.781Z,11.57
2018-04-06T22:40:36.255Z,9.37
2018-04-06T22:43:06.053Z,8.60
2018-04-06T22:45:35.450Z,9.40
2018-04-06T22:48:05.604Z,8.37
2018-04-06T22:50:35.747Z,8.83
2018-04-06T22:53:05.053Z,8.23
2018-04-06T22:55:34.527Z,7.20
2018-04-06T22:58:06.292Z,7.53
2018-04-06T23:00:35.561Z,7.20
2018-04-06T23:03:05.148Z,7.10
2018-04-06T23:05:34.382Z,7.27
2018-04-06T23:08:05.350Z,7.47
2018-04-06T23:10:37.318Z,7.20
2018-04-06T23:13:06.721Z,7.20
2018-04-06T23:15:36.604Z,9.83
2018-04-06T23:18:06.791Z,7.93
2018-04-06T23:20:36.720Z,6.60
2018-04-06T23:23:06.142Z,6.70
2018-04-06T23:25:36.043Z,7.63
2018-04-06T23:28:07.365Z,7.30
2018-04-06T23:30:36.769Z,7.17
2018-04-06T23:33:06.274Z,7.80
2018-04-06T23:35:35.475Z,8.13
2018-04-06T23:38:06.101Z,9.00
2018-04-06T23:40:35.325Z,9.40
2018-04-06T23:43:04.510Z,7.97
2018-04-06T23:45:33.489Z,7.87
2018-04-06T23:48:04.239Z,7.70
2018-04-06T23:50:33.253Z,8.07
2018-04-06T23:53:03.132Z,8.30
2018-04-06T23:55:32.082Z,8.30
2018-04-06T23:58:01.146Z,8.80
